Time;durP1;ratioP1;P1;durP2;ratioP2;P2;SDS_P1;SDS_P2;PMS_P1;PMS_P2;Temp;Humidity;BMP_temperature;BMP_pressure;BME280_temperature;BME280_humidity;BME280_pressure;Samples;Min_cycle;Max_cycle;Signal;HPM_P1;HPM_P2
2023/05/09 00:01:17;;;;;;;65.40;30.92;;;14.80;99.90;;;;;;5100251;28;20040;-60
2023/05/09 00:03:43;;;;;;;60.92;31.67;;;14.60;99.90;;;;;;5099121;28;20038;-59
2023/05/09 00:06:08;;;;;;;66.03;32.60;;;14.70;99.90;;;;;;5100780;28;20048;-59
2023/05/09 00:08:35;;;;;;;62.65;29.83;;;14.10;99.90;;;;;;5098600;28;20072;-58
2023/05/09 00:11:01;;;;;;;61.83;29.48;;;14.00;99.90;;;;;;5100708;28;20048;-56
2023/05/09 00:13:27;;;;;;;62.42;28.23;;;14.70;99.90;;;;;;5098669;28;20074;-57
2023/05/09 00:15:53;;;;;;;60.42;28.48;;;14.00;99.90;;;;;;5100497;28;20095;-57
2023/05/09 00:18:20;;;;;;;58.35;30.20;;;14.70;99.90;;;;;;5099789;28;20043;-56
2023/05/09 00:20:47;;;;;;;59.55;28.02;;;14.10;99.90;;;;;;5098809;28;20052;-56
2023/05/09 00:23:12;;;;;;;59.90;28.52;;;14.50;99.90;;;;;;5100341;28;20044;-57
2023/05/09 00:25:38;;;;;;;59.17;28.35;;;14.30;99.90;;;;;;5098160;28;20058;-57
2023/05/09 00:28:04;;;;;;;61.25;28.27;;;14.20;99.90;;;;;;5100152;28;20054;-56
2023/05/09 00:30:30;;;;;;;54.25;28.63;;;14.30;99.90;;;;;;5097805;28;20032;-56
2023/05/09 00:32:55;;;;;;;54.97;26.75;;;14.40;99.90;;;;;;5100149;28;20036;-55
2023/05/09 00:35:21;;;;;;;53.22;25.45;;;14.20;99.90;;;;;;5099297;28;20169;-56
2023/05/09 00:37:47;;;;;;;62.72;29.98;;;14.10;99.90;;;;;;5098828;28;20541;-56
2023/05/09 00:40:13;;;;;;;49.88;26.73;;;14.50;99.90;;;;;;5099939;28;20055;-56
2023/05/09 00:42:38;;;;;;;59.13;26.70;;;13.90;99.90;;;;;;5098095;28;20048;-58
2023/05/09 00:45:05;;;;;;;57.25;26.50;;;14.50;99.90;;;;;;5082114;28;20040;-59
2023/05/09 00:47:32;;;;;;;55.00;27.05;;;14.10;99.90;;;;;;5098081;28;20040;-59
2023/05/09 00:49:58;;;;;;;52.30;26.73;;;14.50;99.90;;;;;;5100014;28;20055;-58
2023/05/09 00:52:25;;;;;;;52.42;26.10;;;14.00;99.90;;;;;;5098748;28;20048;-58
2023/05/09 00:54:52;;;;;;;50.92;26.15;;;14.60;99.90;;;;;;5098669;28;20099;-59
2023/05/09 00:57:18;;;;;;;49.00;25.80;;;14.40;99.90;;;;;;5099395;28;20488;-59
2023/05/09 00:59:43;;;;;;;50.97;26.17;;;14.60;99.90;;;;;;5097538;28;20066;-59
2023/05/09 01:02:09;;;;;;;46.47;23.40;;;14.00;99.90;;;;;;5099950;28;20051;-59
2023/05/09 01:04:35;;;;;;;46.10;25.40;;;14.50;99.90;;;;;;5097919;28;20436;-59
2023/05/09 01:07:20;;;;;;;50.90;25.58;;;13.80;99.90;;;;;;5099697;28;20079;-59
2023/05/09 01:10:09;;;;;;;46.28;24.77;;;14.50;99.90;;;;;;5099100;28;20036;-58
2023/05/09 01:12:56;;;;;;;49.83;24.95;;;14.20;99.90;;;;;;5090625;28;20084;-59
2023/05/09 01:15:47;;;;;;;45.75;23.58;;;14.10;99.90;;;;;;5079406;28;20052;-58
2023/05/09 01:18:43;;;;;;;47.97;23.63;;;14.30;99.90;;;;;;5078267;28;20048;-59
2023/05/09 01:21:25;;;;;;;47.13;23.80;;;14.50;99.90;;;;;;5077089;28;20045;-59
2023/05/09 01:24:00;;;;;;;;;;;14.10;99.90;;;;;;5061523;28;20055;-59
2023/05/09 01:26:42;;;;;;;47.05;23.42;;;13.90;99.90;;;;;;5077407;28;19924;-59
2023/05/09 01:29:29;;;;;;;50.17;24.58;;;14.40;99.90;;;;;;5077469;28;20049;-58
2023/05/09 01:31:57;;;;;;;42.40;22.67;;;13.90;99.90;;;;;;5078659;28;20048;-58
2023/05/09 01:34:26;;;;;;;46.25;25.05;;;14.40;99.90;;;;;;5076300;28;20053;-59
2023/05/09 01:36:57;;;;;;;47.13;24.15;;;14.50;99.90;;;;;;5079079;28;20048;-59
2023/05/09 01:39:24;;;;;;;48.50;24.25;;;14.40;99.90;;;;;;5077397;28;20043;-58
2023/05/09 01:41:52;;;;;;;47.15;23.88;;;14.20;99.90;;;;;;5077884;28;20100;-59
2023/05/09 01:44:21;;;;;;;50.38;25.25;;;14.50;99.90;;;;;;5078060;28;20049;-59
2023/05/09 01:46:47;;;;;;;47.25;24.13;;;14.50;99.90;;;;;;5058602;28;20672;-58
2023/05/09 01:49:14;;;;;;;48.53;24.15;;;14.50;99.90;;;;;;5078569;28;20041;-59
2023/05/09 01:51:41;;;;;;;53.22;27.33;;;14.50;99.90;;;;;;5076404;28;20578;-58
2023/05/09 01:54:08;;;;;;;50.88;25.17;;;14.10;99.90;;;;;;5078688;28;20119;-59
2023/05/09 01:56:35;;;;;;;49.88;24.70;;;14.00;99.90;;;;;;5077054;28;20090;-59
2023/05/09 01:59:01;;;;;;;48.95;25.63;;;13.90;99.90;;;;;;5077105;28;20044;-59
2023/05/09 02:01:28;;;;;;;53.28;25.45;;;14.20;99.90;;;;;;5077839;28;20044;-59
2023/05/09 02:03:56;;;;;;;47.55;25.15;;;14.20;99.90;;;;;;5076394;28;20043;-58
2023/05/09 02:06:23;;;;;;;49.28;24.65;;;14.10;99.90;;;;;;5078547;28;20176;-58
2023/05/09 02:08:49;;;;;;;51.55;25.45;;;14.50;99.90;;;;;;5076220;28;20386;-59
2023/05/09 02:11:15;;;;;;;50.58;24.92;;;14.40;99.90;;;;;;5078692;28;20037;-59
2023/05/09 02:13:41;;;;;;;46.75;24.17;;;14.30;99.90;;;;;;5077023;28;20052;-58
2023/05/09 02:16:07;;;;;;;50.00;25.77;;;14.40;99.90;;;;;;5077223;28;20052;-59
2023/05/09 02:18:34;;;;;;;53.45;25.45;;;14.10;99.90;;;;;;5077878;28;20048;-59
2023/05/09 02:21:00;;;;;;;48.20;23.92;;;14.20;99.90;;;;;;5076349;28;20056;-59
2023/05/09 02:23:26;;;;;;;56.28;26.13;;;14.50;99.90;;;;;;5078203;28;20048;-59
2023/05/09 02:25:53;;;;;;;57.28;26.02;;;14.50;99.90;;;;;;5076232;28;20467;-59
2023/05/09 02:28:21;;;;;;;52.92;27.00;;;14.40;99.90;;;;;;5077984;28;20044;-58
2023/05/09 02:30:49;;;;;;;54.80;26.15;;;14.40;99.90;;;;;;5076603;28;20797;-59
2023/05/09 02:33:15;;;;;;;54.30;26.75;;;14.50;99.90;;;;;;5077265;28;20049;-58
2023/05/09 02:35:44;;;;;;;53.95;26.17;;;14.10;99.90;;;;;;5059410;28;20048;-58
2023/05/09 02:38:10;;;;;;;53.88;27.70;;;14.60;99.90;;;;;;5058049;28;20045;-59
2023/05/09 02:40:37;;;;;;;51.92;26.77;;;13.90;99.90;;;;;;5078161;28;20079;-57
2023/05/09 02:43:03;;;;;;;51.65;28.02;;;14.50;99.90;;;;;;5075891;28;20092;-59
2023/05/09 02:45:28;;;;;;;51.70;25.73;;;14.30;99.90;;;;;;5078281;28;20053;-59
2023/05/09 02:47:54;;;;;;;54.83;25.08;;;14.30;99.90;;;;;;5076279;28;20044;-58
2023/05/09 02:50:20;;;;;;;50.50;25.23;;;13.70;99.90;;;;;;5077117;28;20044;-59
2023/05/09 02:52:46;;;;;;;58.10;25.50;;;14.30;99.90;;;;;;5079759;28;20044;-59
2023/05/09 02:55:11;;;;;;;47.67;25.88;;;14.40;99.90;;;;;;5080170;28;20116;-58
2023/05/09 02:57:37;;;;;;;55.97;25.80;;;13.90;99.90;;;;;;5081366;28;20415;-58
2023/05/09 03:00:08;;;;;;;47.75;25.15;;;13.80;99.90;;;;;;5079347;28;20051;-59
2023/05/09 03:02:34;;;;;;;53.17;27.15;;;14.20;99.90;;;;;;5081725;28;20048;-58
2023/05/09 03:05:00;;;;;;;48.03;25.83;;;13.80;99.90;;;;;;5079965;28;20048;-58
2023/05/09 03:07:26;;;;;;;45.72;24.27;;;14.00;99.90;;;;;;5081133;28;20143;-59
2023/05/09 03:09:51;;;;;;;48.45;25.02;;;13.70;99.90;;;;;;5080831;28;20104;-59
2023/05/09 03:12:17;;;;;;;45.65;24.67;;;13.90;99.90;;;;;;5079524;28;20037;-58
2023/05/09 03:14:42;;;;;;;50.20;24.45;;;14.10;99.90;;;;;;5062968;28;20065;-58
2023/05/09 03:17:08;;;;;;;45.05;23.90;;;13.60;99.90;;;;;;5059383;28;20540;-59
2023/05/09 03:19:34;;;;;;;46.30;24.08;;;13.70;99.90;;;;;;5061697;28;20037;-59
2023/05/09 03:21:59;;;;;;;43.88;23.30;;;14.40;99.90;;;;;;5059633;28;20051;-59
2023/05/09 03:24:27;;;;;;;43.35;22.38;;;13.80;99.90;;;;;;5060971;28;20121;-59
2023/05/09 03:26:53;;;;;;;48.83;24.42;;;13.70;99.90;;;;;;5060642;28;20053;-58
2023/05/09 03:29:19;;;;;;;56.15;23.75;;;14.20;99.90;;;;;;5059391;28;20065;-58
2023/05/09 03:31:45;;;;;;;44.92;22.80;;;13.60;99.90;;;;;;5061169;28;20057;-59
2023/05/09 03:34:13;;;;;;;48.53;24.23;;;13.70;99.90;;;;;;5058979;28;20048;-59
2023/05/09 03:36:42;;;;;;;42.33;21.23;;;13.70;99.90;;;;;;5061226;28;20053;-58
2023/05/09 03:39:08;;;;;;;44.90;22.33;;;14.10;99.90;;;;;;5058881;28;20080;-59
2023/05/09 03:41:35;;;;;;;45.58;23.70;;;13.60;99.90;;;;;;5060550;28;20412;-59
2023/05/09 03:44:02;;;;;;;44.55;22.60;;;14.00;99.90;;;;;;5060221;28;20123;-59
2023/05/09 03:46:28;;;;;;;43.15;23.48;;;13.80;99.90;;;;;;5059279;28;20418;-59
2023/05/09 03:48:54;;;;;;;47.45;23.30;;;14.20;99.90;;;;;;5060827;28;20036;-58
2023/05/09 03:51:20;;;;;;;46.95;23.25;;;14.10;99.90;;;;;;5058469;28;20045;-58
2023/05/09 03:53:46;;;;;;;42.53;23.83;;;14.30;99.90;;;;;;5042857;28;20524;-59
2023/05/09 03:56:12;;;;;;;52.45;25.77;;;13.60;99.90;;;;;;5059041;28;20448;-58
2023/05/09 03:58:38;;;;;;;49.45;25.05;;;14.20;99.90;;;;;;5060181;28;20045;-59
2023/05/09 04:01:04;;;;;;;58.80;26.65;;;14.00;99.90;;;;;;5059823;28;20071;-59
2023/05/09 04:03:30;;;;;;;59.45;27.33;;;13.80;99.90;;;;;;5057875;28;20045;-58
2023/05/09 04:05:56;;;;;;;53.60;26.42;;;14.10;99.90;;;;;;5060382;28;20044;-58
2023/05/09 04:08:22;;;;;;;58.47;27.70;;;14.00;99.90;;;;;;5039974;28;20625;-58
2023/05/09 04:10:49;;;;;;;58.60;28.50;;;14.20;99.90;;;;;;5060757;28;20041;-59
2023/05/09 04:13:15;;;;;;;56.28;27.08;;;14.20;99.90;;;;;;5047851;28;20055;-58
2023/05/09 04:15:41;;;;;;;56.53;28.13;;;14.30;99.90;;;;;;5100649;28;20050;-58
2023/05/09 04:18:07;;;;;;;54.55;29.33;;;14.00;99.90;;;;;;5099780;28;20036;-58
2023/05/09 04:20:33;;;;;;;58.17;28.73;;;13.90;99.90;;;;;;5064196;28;20032;-58
2023/05/09 04:22:59;;;;;;;52.60;27.00;;;13.50;99.90;;;;;;5100087;28;20380;-58
2023/05/09 04:25:25;;;;;;;54.08;29.10;;;13.60;99.90;;;;;;5098337;28;20044;-57
2023/05/09 04:27:51;;;;;;;55.80;30.00;;;13.70;99.90;;;;;;5100638;28;20063;-58
2023/05/09 04:30:17;;;;;;;58.22;27.25;;;14.00;99.90;;;;;;5098158;28;20044;-58
2023/05/09 04:32:44;;;;;;;54.42;28.23;;;13.80;99.90;;;;;;5100397;28;20348;-58
2023/05/09 04:35:11;;;;;;;60.95;31.00;;;14.30;99.90;;;;;;5099282;28;20040;-59
2023/05/09 04:37:36;;;;;;;63.83;32.58;;;14.00;99.90;;;;;;5098891;28;20047;-58
2023/05/09 04:40:04;;;;;;;61.85;31.08;;;13.60;99.90;;;;;;5081710;28;20044;-59
2023/05/09 04:42:32;;;;;;;64.22;34.15;;;14.00;99.90;;;;;;5098315;28;20067;-58
2023/05/09 04:44:58;;;;;;;64.30;33.03;;;14.40;99.90;;;;;;5081866;28;20044;-59
2023/05/09 04:47:24;;;;;;;64.30;32.97;;;13.60;99.90;;;;;;5098157;28;20040;-58
2023/05/09 04:49:50;;;;;;;63.88;33.58;;;14.00;99.90;;;;;;5100117;28;20173;-59
2023/05/09 04:52:16;;;;;;;72.60;36.95;;;14.40;99.90;;;;;;5098571;28;20038;-58
2023/05/09 04:54:41;;;;;;;71.10;37.08;;;14.50;99.90;;;;;;5098821;28;20039;-58
2023/05/09 04:57:07;;;;;;;81.80;39.42;;;14.40;99.90;;;;;;5099750;28;20051;-59
2023/05/09 04:59:34;;;;;;;80.10;38.42;;;13.80;99.90;;;;;;5097640;28;20405;-58
2023/05/09 05:02:00;;;;;;;83.28;39.50;;;13.90;99.90;;;;;;5099773;28;20051;-58
2023/05/09 05:04:25;;;;;;;87.05;40.70;;;13.90;99.90;;;;;;5097489;28;20040;-58
2023/05/09 05:06:51;;;;;;;88.75;41.22;;;14.10;99.90;;;;;;5099620;28;20044;-59
2023/05/09 05:09:17;;;;;;;86.32;40.83;;;14.70;99.90;;;;;;5098324;28;20044;-58
2023/05/09 05:11:42;;;;;;;83.72;40.88;;;14.40;99.90;;;;;;5098701;28;20048;-58
2023/05/09 05:14:08;;;;;;;89.15;41.72;;;14.00;99.90;;;;;;5098988;28;20040;-59
2023/05/09 05:16:33;;;;;;;85.65;42.03;;;14.90;99.90;;;;;;5098054;28;20047;-58
2023/05/09 05:18:59;;;;;;;87.90;41.42;;;14.00;99.90;;;;;;5099810;28;20429;-58
2023/05/09 05:21:25;;;;;;;91.80;43.80;;;14.70;99.90;;;;;;5097441;28;20036;-59
2023/05/09 05:23:50;;;;;;;99.20;45.28;;;14.70;99.90;;;;;;5100091;28;20451;-58
2023/05/09 05:26:16;;;;;;;99.70;44.72;;;14.10;99.90;;;;;;5097875;28;20655;-58
2023/05/09 05:28:42;;;;;;;94.10;44.13;;;14.20;99.90;;;;;;5098644;28;20743;-58
2023/05/09 05:31:07;;;;;;;98.50;47.15;;;14.90;99.90;;;;;;5098527;28;20032;-59
2023/05/09 05:33:33;;;;;;;102.40;47.40;;;15.10;99.90;;;;;;5079342;28;20047;-58
2023/05/09 05:35:59;;;;;;;97.78;47.47;;;14.30;99.90;;;;;;5098773;28;20054;-59
2023/05/09 05:38:24;;;;;;;95.65;44.92;;;14.60;99.90;;;;;;5096855;28;20036;-58
2023/05/09 05:40:50;;;;;;;99.30;48.25;;;14.70;99.90;;;;;;5099185;28;20036;-58
2023/05/09 05:43:16;;;;;;;99.18;48.10;;;14.70;99.90;;;;;;5097030;28;20050;-58
2023/05/09 05:45:41;;;;;;;100.60;48.05;;;14.60;99.90;;;;;;5080461;28;20036;-58
2023/05/09 05:48:07;;;;;;;94.88;46.40;;;14.40;99.90;;;;;;5098177;28;20047;-58
2023/05/09 05:50:33;;;;;;;107.53;50.45;;;15.30;99.90;;;;;;5097226;28;20043;-59
2023/05/09 05:52:59;;;;;;;104.63;48.65;;;14.60;99.90;;;;;;5098626;28;20036;-58
2023/05/09 05:55:24;;;;;;;104.40;48.90;;;14.60;99.90;;;;;;5078589;28;20076;-59
2023/05/09 05:57:50;;;;;;;100.32;50.30;;;15.00;99.90;;;;;;5098962;28;20048;-58
2023/05/09 06:00:16;;;;;;;96.38;48.85;;;14.40;99.90;;;;;;5096531;28;20035;-58
2023/05/09 06:02:52;;;;;;;103.00;51.55;;;14.60;99.90;;;;;;5098664;28;20036;-58
2023/05/09 06:05:17;;;;;;;102.30;49.53;;;14.60;99.90;;;;;;5097949;28;20040;-58
2023/05/09 06:07:43;;;;;;;100.90;49.97;;;15.10;99.90;;;;;;5097354;28;20055;-58
2023/05/09 06:10:09;;;;;;;104.75;51.15;;;15.60;99.90;;;;;;5098386;28;20044;-58
2023/05/09 06:12:35;;;;;;;103.80;51.25;;;15.30;99.90;;;;;;5096350;28;20659;-59
2023/05/09 06:15:04;;;;;;;109.53;52.45;;;14.70;99.90;;;;;;5098376;28;20051;-59
2023/05/09 06:17:30;;;;;;;121.70;58.33;;;15.00;99.90;;;;;;5096607;28;20068;-58
2023/05/09 06:19:56;;;;;;;116.13;56.20;;;15.10;99.90;;;;;;5098221;28;20040;-58
2023/05/09 06:22:21;;;;;;;104.93;51.55;;;15.60;99.90;;;;;;5079296;28;20070;-58
2023/05/09 06:24:47;;;;;;;113.40;52.13;;;15.70;99.90;;;;;;5097151;28;20097;-59
2023/05/09 06:27:13;;;;;;;101.22;51.67;;;15.80;99.90;;;;;;5097497;28;20040;-58
2023/05/09 06:29:38;;;;;;;114.78;54.58;;;15.90;99.90;;;;;;5096363;28;20040;-59
2023/05/09 06:32:04;;;;;;;114.55;56.13;;;16.00;99.90;;;;;;5098538;28;20107;-59
2023/05/09 06:34:30;;;;;;;103.15;53.22;;;15.50;99.90;;;;;;5096339;28;20036;-59
2023/05/09 06:36:56;;;;;;;110.63;55.58;;;15.50;99.90;;;;;;5098229;28;20112;-59
2023/05/09 06:39:22;;;;;;;97.80;50.35;;;15.30;99.90;;;;;;5097015;28;20052;-59
2023/05/09 06:41:47;;;;;;;109.30;54.83;;;15.20;99.90;;;;;;5097146;28;20063;-59
2023/05/09 06:44:13;;;;;;;113.18;56.88;;;15.30;99.90;;;;;;5079907;28;20052;-58
2023/05/09 06:46:39;;;;;;;105.75;54.35;;;15.50;99.90;;;;;;5096136;28;20044;-59
2023/05/09 06:49:07;;;;;;;106.78;53.90;;;16.00;99.90;;;;;;5098424;28;20040;-59
2023/05/09 06:51:33;;;;;;;101.82;52.28;;;15.10;99.90;;;;;;5096036;28;20048;-58
2023/05/09 06:53:58;;;;;;;111.10;59.33;;;16.20;99.90;;;;;;5098297;28;20040;-58
2023/05/09 06:56:25;;;;;;;102.85;52.75;;;16.10;99.90;;;;;;5096982;28;20054;-58
2023/05/09 06:58:51;;;;;;;107.55;53.30;;;16.20;99.90;;;;;;5096842;28;20083;-55
2023/05/09 07:01:16;;;;;;;104.65;53.88;;;15.60;99.90;;;;;;5097253;28;20059;-59
2023/05/09 07:03:43;;;;;;;106.15;53.55;;;15.10;99.90;;;;;;5096214;28;20040;-58
2023/05/09 07:06:08;;;;;;;105.90;54.50;;;16.10;99.90;;;;;;5097870;28;20047;-58
2023/05/09 07:08:34;;;;;;;106.45;56.70;;;16.00;99.90;;;;;;5095871;28;20036;-59
2023/05/09 07:11:00;;;;;;;96.22;52.38;;;15.30;99.90;;;;;;5098248;28;20507;-59
2023/05/09 07:13:25;;;;;;;104.80;53.40;;;15.30;99.90;;;;;;5096007;28;20044;-58
2023/05/09 07:15:51;;;;;;;98.88;52.95;;;16.10;99.90;;;;;;5097218;28;20036;-59
2023/05/09 07:18:17;;;;;;;100.05;52.85;;;16.00;99.90;;;;;;5097329;28;20051;-59
2023/05/09 07:20:42;;;;;;;105.63;52.53;;;16.40;99.90;;;;;;5096141;28;20463;-58
2023/05/09 07:23:08;;;;;;;95.72;50.97;;;16.50;99.90;;;;;;5097684;28;20399;-59
2023/05/09 07:25:34;;;;;;;101.35;52.90;;;16.10;99.90;;;;;;5095526;28;20174;-59
2023/05/09 07:28:00;;;;;;;103.57;54.08;;;16.00;99.90;;;;;;5097895;28;20044;-58
2023/05/09 07:30:25;;;;;;;98.03;51.88;;;16.60;99.90;;;;;;5095675;28;20055;-58
2023/05/09 07:32:51;;;;;;;101.70;54.90;;;15.50;99.90;;;;;;5097313;28;20032;-59
2023/05/09 07:35:18;;;;;;;101.00;55.47;;;16.40;99.90;;;;;;5096967;28;20048;-58
2023/05/09 07:37:44;;;;;;;89.80;49.40;;;16.60;99.90;;;;;;5096670;28;20040;-59
2023/05/09 07:40:10;;;;;;;82.72;47.70;;;16.20;99.90;;;;;;5100887;28;20058;-58
2023/05/09 07:42:36;;;;;;;76.72;44.78;;;16.50;99.90;;;;;;5099340;28;20125;-59
2023/05/09 07:45:04;;;;;;;73.60;43.17;;;15.30;99.90;;;;;;5101479;28;20044;-58
2023/05/09 07:47:33;;;;;;;71.55;41.58;;;16.60;99.90;;;;;;5099511;28;20096;-58
2023/05/09 07:49:59;;;;;;;67.43;40.65;;;15.50;99.90;;;;;;5101092;28;20047;-59
2023/05/09 07:52:24;;;;;;;73.32;41.38;;;16.10;99.90;;;;;;5100380;28;20043;-59
2023/05/09 07:54:50;;;;;;;69.20;40.22;;;15.40;99.90;;;;;;5099417;28;20051;-58
2023/05/09 07:57:16;;;;;;;69.00;41.53;;;16.40;99.90;;;;;;5100793;28;20040;-58
2023/05/09 07:59:42;;;;;;;69.43;41.10;;;15.40;99.90;;;;;;5098658;28;20083;-58
2023/05/09 08:02:08;;;;;;;69.90;40.28;;;15.70;99.90;;;;;;5082949;28;20044;-58
2023/05/09 08:04:37;;;;;;;70.05;41.88;;;16.50;99.90;;;;;;5098921;28;20036;-58
2023/05/09 08:07:06;;;;;;;69.90;42.00;;;15.90;99.90;;;;;;5100569;28;20058;-59
2023/05/09 08:09:32;;;;;;;72.55;41.97;;;15.90;99.90;;;;;;5100328;28;20055;-58
2023/05/09 08:11:58;;;;;;;73.68;40.72;;;16.50;99.90;;;;;;5099335;28;20100;-59
2023/05/09 08:14:24;;;;;;;81.18;42.53;;;15.70;99.90;;;;;;5100391;28;20055;-58
2023/05/09 08:16:49;;;;;;;77.78;42.03;;;15.50;99.90;;;;;;5098917;28;20048;-58
2023/05/09 08:19:15;;;;;;;75.63;41.35;;;15.60;99.90;;;;;;5101063;28;20327;-58
2023/05/09 08:21:41;;;;;;;70.25;40.80;;;15.70;99.90;;;;;;5098931;28;20044;-58
2023/05/09 08:24:08;;;;;;;67.03;39.38;;;15.60;99.90;;;;;;5100781;28;20036;-58
2023/05/09 08:26:34;;;;;;;69.68;38.90;;;16.40;99.90;;;;;;5099827;28;20079;-58
2023/05/09 08:29:00;;;;;;;67.30;38.00;;;15.50;99.90;;;;;;5099120;28;20297;-58
2023/05/09 08:31:26;;;;;;;66.70;38.47;;;16.30;99.90;;;;;;5082204;28;20414;-59
2023/05/09 08:33:52;;;;;;;75.07;40.13;;;15.40;99.90;;;;;;5098695;28;20081;-59
2023/05/09 08:36:17;;;;;;;67.32;38.85;;;16.30;99.90;;;;;;5082494;28;20036;-59
2023/05/09 08:38:43;;;;;;;69.35;39.72;;;15.60;99.90;;;;;;5098550;28;20048;-58
2023/05/09 08:41:09;;;;;;;67.05;39.63;;;15.90;99.90;;;;;;5082101;28;20058;-59
2023/05/09 08:43:35;;;;;;;72.63;40.80;;;16.20;99.90;;;;;;5099023;28;20100;-58
2023/05/09 08:46:06;;;;;;;72.95;40.22;;;16.50;99.90;;;;;;5099419;28;20052;-59
2023/05/09 08:48:36;;;;;;;69.90;39.50;;;16.30;99.90;;;;;;5099882;28;20095;-59
2023/05/09 08:51:03;;;;;;;71.18;41.85;;;16.30;99.90;;;;;;5097374;28;20043;-59
2023/05/09 08:53:29;;;;;;;71.63;40.08;;;16.40;99.90;;;;;;5100649;28;20047;-59
2023/05/09 08:56:02;;;;;;;71.63;42.22;;;15.90;99.90;;;;;;5098033;28;20056;-58
2023/05/09 08:58:29;;;;;;;70.93;39.72;;;16.50;99.90;;;;;;5099998;28;20044;-58
2023/05/09 09:00:55;;;;;;;68.47;40.30;;;15.60;99.90;;;;;;5080585;28;20092;-58
2023/05/09 09:03:25;;;;;;;68.57;40.67;;;15.90;99.90;;;;;;5098354;28;20051;-58
2023/05/09 09:05:52;;;;;;;67.18;39.50;;;16.20;99.90;;;;;;5099596;28;20051;-58
2023/05/09 09:08:18;;;;;;;72.65;43.70;;;16.70;99.90;;;;;;5097575;28;20043;-58
2023/05/09 09:10:47;;;;;;;64.78;39.80;;;16.00;99.90;;;;;;5081774;28;20063;-59
2023/05/09 09:13:15;;;;;;;71.10;43.17;;;16.00;99.90;;;;;;5098261;28;20040;-59
2023/05/09 09:15:44;;;;;;;66.50;38.78;;;16.20;99.90;;;;;;5098939;28;20177;-58
2023/05/09 09:18:20;;;;;;;65.10;40.55;;;16.70;99.90;;;;;;5098784;28;20123;-58
2023/05/09 09:20:58;;;;;;;63.75;38.92;;;16.50;99.90;;;;;;5097660;28;20044;-59
2023/05/09 09:23:26;;;;;;;67.63;39.75;;;16.90;99.90;;;;;;5099638;28;20040;-58
2023/05/09 09:26:00;;;;;;;68.53;40.95;;;16.40;99.90;;;;;;5097608;28;20106;-59
2023/05/09 09:28:25;;;;;;;62.53;40.03;;;16.40;99.90;;;;;;5099035;28;20047;-59
2023/05/09 09:30:51;;;;;;;68.75;39.65;;;16.70;99.90;;;;;;5098525;28;20032;-59
2023/05/09 09:33:21;;;;;;;64.18;37.75;;;16.50;99.90;;;;;;5097671;28;20040;-59
2023/05/09 09:35:51;;;;;;;64.35;39.00;;;17.00;99.90;;;;;;5099194;28;20036;-58
2023/05/09 09:38:21;;;;;;;60.67;38.75;;;17.20;99.90;;;;;;5097535;28;20036;-59
2023/05/09 09:40:57;;;;;;;60.15;37.20;;;16.70;99.90;;;;;;5081184;28;20076;-58
2023/05/09 09:43:30;;;;;;;60.67;35.83;;;17.10;99.90;;;;;;5098090;28;20061;-59
2023/05/09 09:46:00;;;;;;;60.90;36.90;;;17.00;99.90;;;;;;5097997;28;20052;-58
2023/05/09 09:48:26;;;;;;;58.40;34.97;;;16.80;99.90;;;;;;5098896;28;20040;-58
2023/05/09 09:50:58;;;;;;;59.53;35.58;;;17.20;99.90;;;;;;5097324;28;20050;-59
2023/05/09 09:53:29;;;;;;;56.13;37.50;;;17.20;99.90;;;;;;5081798;28;20050;-59
2023/05/09 09:55:54;;;;;;;60.77;36.67;;;16.80;99.90;;;;;;5079191;28;20056;-59
2023/05/09 09:58:26;;;;;;;54.13;33.63;;;17.60;99.90;;;;;;5098905;28;20090;-59
2023/05/09 10:01:12;;;;;;;56.95;34.25;;;17.50;99.90;;;;;;5097545;28;20074;-58
2023/05/09 10:03:39;;;;;;;52.13;32.72;;;17.40;99.90;;;;;;5096884;28;20050;-59
2023/05/09 10:06:14;;;;;;;47.25;31.80;;;17.50;99.90;;;;;;5080880;28;20480;-59
2023/05/09 10:08:41;;;;;;;50.15;32.78;;;17.70;99.90;;;;;;5096980;28;20047;-58
2023/05/09 10:11:08;;;;;;;49.63;31.77;;;18.00;99.90;;;;;;5099080;28;20036;-59
2023/05/09 10:13:36;;;;;;;44.80;29.25;;;17.60;99.90;;;;;;5097713;28;20040;-58
2023/05/09 10:16:03;;;;;;;43.90;27.38;;;17.80;99.90;;;;;;5097584;28;20075;-58
2023/05/09 10:18:32;;;;;;;46.15;29.45;;;18.10;99.90;;;;;;5098586;28;20044;-59
2023/05/09 10:21:02;;;;;;;47.97;28.92;;;18.30;99.90;;;;;;5096672;28;20050;-58
2023/05/09 10:23:35;;;;;;;44.13;30.02;;;18.10;99.90;;;;;;5098995;28;20656;-58
2023/05/09 10:26:30;;;;;;;41.65;27.48;;;18.20;99.90;;;;;;5096731;28;20040;-59
2023/05/09 10:28:58;;;;;;;40.83;27.98;;;18.10;99.90;;;;;;5097044;28;20048;-59
2023/05/09 10:31:29;;;;;;;41.17;27.88;;;17.80;99.90;;;;;;5098539;28;20052;-56
2023/05/09 10:33:55;;;;;;;46.35;30.23;;;17.70;99.90;;;;;;5096272;28;20048;-58
2023/05/09 10:36:22;;;;;;;42.60;27.52;;;17.70;99.90;;;;;;5081115;28;20109;-58
2023/05/09 10:38:50;;;;;;;42.50;26.42;;;17.90;99.90;;;;;;5096850;28;20050;-58
2023/05/09 10:41:17;;;;;;;38.15;26.20;;;17.80;99.90;;;;;;5098312;28;20044;-58
2023/05/09 10:43:44;;;;;;;39.65;27.75;;;17.90;99.90;;;;;;5097790;28;20100;-58
2023/05/09 10:46:11;;;;;;;41.45;27.15;;;17.60;99.90;;;;;;5097142;28;20044;-59
2023/05/09 10:48:38;;;;;;;40.78;25.70;;;17.60;99.90;;;;;;5098207;28;20047;-59
2023/05/09 10:51:05;;;;;;;38.83;25.73;;;17.80;99.90;;;;;;5096498;28;20092;-59
2023/05/09 10:53:47;;;;;;;39.17;25.58;;;17.90;99.90;;;;;;5098805;28;20047;-59
2023/05/09 10:56:28;;;;;;;38.55;25.90;;;17.90;99.90;;;;;;5096880;28;20514;-58
2023/05/09 10:58:53;;;;;;;35.90;22.85;;;18.00;99.90;;;;;;5096633;28;20039;-59
2023/05/09 11:01:35;;;;;;;33.10;22.25;;;18.00;99.90;;;;;;5098045;28;20490;-58
2023/05/09 11:04:11;;;;;;;32.00;20.52;;;18.20;99.90;;;;;;5095954;28;20052;-58
2023/05/09 11:06:42;;;;;;;30.63;20.35;;;17.90;99.90;;;;;;5098290;28;20059;-58
2023/05/09 11:09:32;;;;;;;28.50;19.60;;;18.00;99.90;;;;;;5096626;28;20081;-58
2023/05/09 11:12:08;;;;;;;28.77;19.40;;;17.90;99.90;;;;;;5097111;28;20654;-58
2023/05/09 11:14:44;;;;;;;28.48;20.50;;;18.00;99.90;;;;;;5101715;28;20056;-58
2023/05/09 11:17:22;;;;;;;31.40;18.63;;;17.90;99.90;;;;;;5100269;28;20131;-58
2023/05/09 11:19:47;;;;;;;27.95;19.40;;;17.90;99.90;;;;;;5101652;28;20047;-58
2023/05/09 11:22:27;;;;;;;24.58;16.60;;;17.80;99.90;;;;;;5100829;28;20048;-58
2023/05/09 11:25:07;;;;;;;25.13;16.10;;;17.90;99.90;;;;;;5099874;28;20036;-58
2023/05/09 11:27:43;;;;;;;24.58;16.52;;;18.00;99.90;;;;;;5101760;28;20051;-58
2023/05/09 11:30:14;;;;;;;23.63;15.80;;;18.00;99.90;;;;;;5099574;28;20526;-58
2023/05/09 11:32:43;;;;;;;23.20;15.50;;;18.00;99.90;;;;;;5101785;28;20047;-59
2023/05/09 11:35:19;;;;;;;25.05;16.27;;;18.10;99.90;;;;;;5101043;28;20056;-58
2023/05/09 11:37:50;;;;;;;26.02;16.17;;;18.20;99.90;;;;;;5083079;28;20515;-59
2023/05/09 11:40:17;;;;;;;25.08;15.27;;;18.20;99.90;;;;;;5101734;28;20044;-58
2023/05/09 11:42:54;;;;;;;23.88;15.88;;;18.30;99.90;;;;;;5099373;28;20048;-58
2023/05/09 11:45:21;;;;;;;22.70;15.20;;;18.20;99.90;;;;;;5101726;28;20032;-58
2023/05/09 11:47:49;;;;;;;21.65;14.55;;;18.30;99.90;;;;;;5100149;28;20054;-58
2023/05/09 11:50:16;;;;;;;20.95;14.27;;;18.10;99.90;;;;;;5099851;28;20044;-58
2023/05/09 11:52:42;;;;;;;23.40;15.15;;;18.20;99.90;;;;;;5100984;28;20047;-59
2023/05/09 11:55:13;;;;;;;21.38;15.05;;;18.20;99.90;;;;;;5099084;28;20044;-59
2023/05/09 11:57:41;;;;;;;21.90;15.10;;;18.20;99.90;;;;;;5101313;28;20573;-58
2023/05/09 12:00:10;;;;;;;20.98;14.60;;;18.00;99.90;;;;;;5099004;28;20282;-58
2023/05/09 12:02:37;;;;;;;20.05;14.15;;;18.30;99.90;;;;;;5101256;28;20055;-58
2023/05/09 12:05:10;;;;;;;19.52;13.50;;;18.30;99.90;;;;;;5100059;28;20044;-59
2023/05/09 12:07:38;;;;;;;22.23;13.85;;;18.30;99.90;;;;;;5099479;28;20103;-58
2023/05/09 12:10:24;;;;;;;22.02;14.63;;;18.40;99.90;;;;;;5101067;28;20178;-58
2023/05/09 12:12:52;;;;;;;19.42;13.52;;;18.40;99.90;;;;;;5098435;28;20090;-58
2023/05/09 12:15:18;;;;;;;20.67;13.65;;;18.50;99.90;;;;;;5086217;28;20059;-58
2023/05/09 12:17:45;;;;;;;20.48;14.82;;;18.30;99.90;;;;;;5079473;28;20051;-58
2023/05/09 12:20:11;;;;;;;19.30;14.18;;;18.30;99.90;;;;;;5079313;28;20040;-59
2023/05/09 12:22:37;;;;;;;20.40;13.68;;;18.40;99.90;;;;;;5080290;28;20562;-58
2023/05/09 12:25:09;;;;;;;18.98;14.02;;;18.40;99.90;;;;;;5077603;28;20081;-59
2023/05/09 12:27:36;;;;;;;19.92;13.45;;;18.50;99.90;;;;;;5080514;28;20040;-58
2023/05/09 12:30:07;;;;;;;18.90;12.68;;;18.50;99.90;;;;;;5078133;28;20076;-59